sensor_id;sensor_type;location;lat;lon;timestamp;P1;durP1;ratioP1;P2;durP2;ratioP2
80508;SDS011;69838;52.602;13.434;2023-06-14T00:00:29;5.15;;;2.90;;
80508;SDS011;69838;52.602;13.434;2023-06-14T00:01:16;6.15;;;2.60;;
80508;SDS011;69838;52.602;13.434;2023-06-14T00:02:01;4.38;;;2.72;;
80508;SDS011;69838;52.602;13.434;2023-06-14T00:02:47;4.72;;;2.88;;
80508;SDS011;69838;52.602;13.434;2023-06-14T00:03:32;4.40;;;2.72;;
80508;SDS011;69838;52.602;13.434;2023-06-14T00:04:18;4.10;;;2.50;;
80508;SDS011;69838;52.602;13.434;2023-06-14T00:05:05;3.72;;;2.17;;
80508;SDS011;69838;52.602;13.434;2023-06-14T00:05:51;6.78;;;2.85;;
80508;SDS011;69838;52.602;13.434;2023-06-14T00:06:36;5.43;;;2.67;;
80508;SDS011;69838;52.602;13.434;2023-06-14T00:07:22;4.25;;;2.53;;
80508;SDS011;69838;52.602;13.434;2023-06-14T00:08:19;4.45;;;3.83;;
80508;SDS011;69838;52.602;13.434;2023-06-14T00:09:06;4.30;;;2.70;;
80508;SDS011;69838;52.602;13.434;2023-06-14T00:09:53;4.50;;;2.50;;
80508;SDS011;69838;52.602;13.434;2023-06-14T00:10:38;4.43;;;2.50;;
80508;SDS011;69838;52.602;13.434;2023-06-14T00:11:26;4.18;;;2.58;;
80508;SDS011;69838;52.602;13.434;2023-06-14T00:12:12;3.88;;;2.47;;
80508;SDS011;69838;52.602;13.434;2023-06-14T00:12:57;4.20;;;2.30;;
80508;SDS011;69838;52.602;13.434;2023-06-14T00:13:42;5.57;;;2.95;;
80508;SDS011;69838;52.602;13.434;2023-06-14T00:14:28;4.38;;;2.75;;
80508;SDS011;69838;52.602;13.434;2023-06-14T00:15:13;4.05;;;2.40;;
80508;SDS011;69838;52.602;13.434;2023-06-14T00:15:58;3.95;;;2.65;;
80508;SDS011;69838;52.602;13.434;2023-06-14T00:16:44;4.13;;;2.47;;
80508;SDS011;69838;52.602;13.434;2023-06-14T00:17:29;4.60;;;2.88;;
80508;SDS011;69838;52.602;13.434;2023-06-14T00:18:15;5.00;;;3.72;;
80508;SDS011;69838;52.602;13.434;2023-06-14T00:19:01;3.70;;;2.33;;
80508;SDS011;69838;52.602;13.434;2023-06-14T00:19:50;4.13;;;2.33;;
80508;SDS011;69838;52.602;13.434;2023-06-14T00:20:35;6.13;;;3.10;;
80508;SDS011;69838;52.602;13.434;2023-06-14T00:21:20;4.65;;;2.90;;
80508;SDS011;69838;52.602;13.434;2023-06-14T00:22:05;4.68;;;4.13;;
80508;SDS011;69838;52.602;13.434;2023-06-14T00:22:51;4.47;;;3.08;;
80508;SDS011;69838;52.602;13.434;2023-06-14T00:23:36;4.15;;;3.03;;
80508;SDS011;69838;52.602;13.434;2023-06-14T00:24:22;4.10;;;2.40;;
80508;SDS011;69838;52.602;13.434;2023-06-14T00:25:07;5.00;;;2.78;;
80508;SDS011;69838;52.602;13.434;2023-06-14T00:25:52;4.53;;;3.22;;
80508;SDS011;69838;52.602;13.434;2023-06-14T00:26:38;4.40;;;2.78;;
80508;SDS011;69838;52.602;13.434;2023-06-14T00:27:23;4.72;;;2.90;;
80508;SDS011;69838;52.602;13.434;2023-06-14T00:28:08;4.60;;;2.70;;
80508;SDS011;69838;52.602;13.434;2023-06-14T00:28:54;4.55;;;2.95;;
80508;SDS011;69838;52.602;13.434;2023-06-14T00:29:39;5.25;;;4.38;;
80508;SDS011;69838;52.602;13.434;2023-06-14T00:30:24;4.15;;;2.85;;
80508;SDS011;69838;52.602;13.434;2023-06-14T00:31:10;4.63;;;3.33;;
80508;SDS011;69838;52.602;13.434;2023-06-14T00:31:55;5.20;;;2.92;;
80508;SDS011;69838;52.602;13.434;2023-06-14T00:32:40;4.55;;;2.58;;
80508;SDS011;69838;52.602;13.434;2023-06-14T00:33:27;6.05;;;3.10;;
80508;SDS011;69838;52.602;13.434;2023-06-14T00:34:13;6.00;;;3.03;;
80508;SDS011;69838;52.602;13.434;2023-06-14T00:34:58;4.45;;;2.72;;
80508;SDS011;69838;52.602;13.434;2023-06-14T00:35:43;6.22;;;3.08;;
80508;SDS011;69838;52.602;13.434;2023-06-14T00:36:29;4.88;;;3.13;;
80508;SDS011;69838;52.602;13.434;2023-06-14T00:37:14;4.47;;;2.97;;
80508;SDS011;69838;52.602;13.434;2023-06-14T00:37:59;5.43;;;3.63;;
80508;SDS011;69838;52.602;13.434;2023-06-14T00:38:45;5.60;;;3.15;;
80508;SDS011;69838;52.602;13.434;2023-06-14T00:39:30;5.63;;;3.20;;
80508;SDS011;69838;52.602;13.434;2023-06-14T00:40:15;6.03;;;3.08;;
80508;SDS011;69838;52.602;13.434;2023-06-14T00:41:01;4.35;;;2.85;;
80508;SDS011;69838;52.602;13.434;2023-06-14T00:41:46;5.30;;;2.60;;
80508;SDS011;69838;52.602;13.434;2023-06-14T00:42:31;4.18;;;2.50;;
80508;SDS011;69838;52.602;13.434;2023-06-14T00:43:17;5.05;;;3.17;;
80508;SDS011;69838;52.602;13.434;2023-06-14T00:44:02;4.25;;;2.60;;
80508;SDS011;69838;52.602;13.434;2023-06-14T00:44:48;6.13;;;3.55;;
80508;SDS011;69838;52.602;13.434;2023-06-14T00:45:33;4.95;;;3.03;;
80508;SDS011;69838;52.602;13.434;2023-06-14T00:46:20;4.10;;;2.45;;
80508;SDS011;69838;52.602;13.434;2023-06-14T00:47:07;4.90;;;2.58;;
80508;SDS011;69838;52.602;13.434;2023-06-14T00:47:52;4.38;;;3.00;;
80508;SDS011;69838;52.602;13.434;2023-06-14T00:48:40;4.75;;;3.47;;
80508;SDS011;69838;52.602;13.434;2023-06-14T00:49:25;4.90;;;2.95;;
80508;SDS011;69838;52.602;13.434;2023-06-14T00:50:11;4.72;;;3.40;;
80508;SDS011;69838;52.602;13.434;2023-06-14T00:50:56;5.18;;;2.88;;
80508;SDS011;69838;52.602;13.434;2023-06-14T00:51:42;4.28;;;2.75;;
80508;SDS011;69838;52.602;13.434;2023-06-14T00:52:27;4.13;;;2.60;;
80508;SDS011;69838;52.602;13.434;2023-06-14T00:53:14;5.07;;;3.05;;
80508;SDS011;69838;52.602;13.434;2023-06-14T00:54:02;4.97;;;3.58;;
80508;SDS011;69838;52.602;13.434;2023-06-14T00:54:47;5.18;;;2.97;;
80508;SDS011;69838;52.602;13.434;2023-06-14T00:55:33;5.82;;;3.40;;
80508;SDS011;69838;52.602;13.434;2023-06-14T00:56:18;3.90;;;2.60;;
80508;SDS011;69838;52.602;13.434;2023-06-14T00:57:05;5.68;;;3.42;;
80508;SDS011;69838;52.602;13.434;2023-06-14T00:57:52;4.80;;;3.08;;
80508;SDS011;69838;52.602;13.434;2023-06-14T00:58:38;4.20;;;2.70;;
80508;SDS011;69838;52.602;13.434;2023-06-14T00:59:24;5.40;;;2.90;;
80508;SDS011;69838;52.602;13.434;2023-06-14T01:00:10;6.35;;;4.15;;
80508;SDS011;69838;52.602;13.434;2023-06-14T01:00:57;4.65;;;3.03;;
80508;SDS011;69838;52.602;13.434;2023-06-14T01:01:42;4.88;;;2.92;;
80508;SDS011;69838;52.602;13.434;2023-06-14T01:02:28;4.68;;;2.97;;
80508;SDS011;69838;52.602;13.434;2023-06-14T01:03:13;5.60;;;3.25;;
80508;SDS011;69838;52.602;13.434;2023-06-14T01:04:03;4.50;;;3.20;;
80508;SDS011;69838;52.602;13.434;2023-06-14T01:04:50;4.53;;;3.20;;
80508;SDS011;69838;52.602;13.434;2023-06-14T01:05:37;5.32;;;3.28;;
80508;SDS011;69838;52.602;13.434;2023-06-14T01:07:43;4.82;;;3.35;;
80508;SDS011;69838;52.602;13.434;2023-06-14T01:08:50;4.63;;;2.58;;
80508;SDS011;69838;52.602;13.434;2023-06-14T01:12:21;4.50;;;3.05;;
80508;SDS011;69838;52.602;13.434;2023-06-14T01:13:13;4.90;;;2.95;;
80508;SDS011;69838;52.602;13.434;2023-06-14T01:14:05;5.35;;;3.55;;
80508;SDS011;69838;52.602;13.434;2023-06-14T01:14:51;6.28;;;3.80;;
80508;SDS011;69838;52.602;13.434;2023-06-14T01:15:39;5.05;;;3.38;;
80508;SDS011;69838;52.602;13.434;2023-06-14T01:16:25;5.82;;;3.55;;
80508;SDS011;69838;52.602;13.434;2023-06-14T01:17:11;5.25;;;3.83;;
80508;SDS011;69838;52.602;13.434;2023-06-14T01:18:01;4.68;;;2.80;;
80508;SDS011;69838;52.602;13.434;2023-06-14T01:18:49;6.32;;;3.42;;
80508;SDS011;69838;52.602;13.434;2023-06-14T01:19:37;6.15;;;3.28;;
80508;SDS011;69838;52.602;13.434;2023-06-14T01:20:22;5.38;;;3.45;;
80508;SDS011;69838;52.602;13.434;2023-06-14T01:21:22;4.40;;;3.13;;
80508;SDS011;69838;52.602;13.434;2023-06-14T01:22:08;5.45;;;3.03;;
80508;SDS011;69838;52.602;13.434;2023-06-14T01:22:54;5.78;;;3.00;;
80508;SDS011;69838;52.602;13.434;2023-06-14T01:23:39;5.20;;;3.20;;
80508;SDS011;69838;52.602;13.434;2023-06-14T01:24:24;6.45;;;3.22;;
80508;SDS011;69838;52.602;13.434;2023-06-14T01:25:10;5.07;;;4.03;;
80508;SDS011;69838;52.602;13.434;2023-06-14T01:25:57;5.25;;;3.88;;
80508;SDS011;69838;52.602;13.434;2023-06-14T01:26:42;5.00;;;3.10;;
80508;SDS011;69838;52.602;13.434;2023-06-14T01:27:30;4.78;;;3.20;;
80508;SDS011;69838;52.602;13.434;2023-06-14T01:28:18;5.30;;;3.50;;
80508;SDS011;69838;52.602;13.434;2023-06-14T01:29:05;5.35;;;3.60;;
80508;SDS011;69838;52.602;13.434;2023-06-14T01:29:51;5.38;;;4.88;;
80508;SDS011;69838;52.602;13.434;2023-06-14T01:30:42;6.10;;;4.45;;
80508;SDS011;69838;52.602;13.434;2023-06-14T01:31:32;6.00;;;3.75;;
80508;SDS011;69838;52.602;13.434;2023-06-14T01:32:26;5.40;;;3.60;;
80508;SDS011;69838;52.602;13.434;2023-06-14T01:33:14;7.05;;;3.50;;
80508;SDS011;69838;52.602;13.434;2023-06-14T01:34:02;5.00;;;3.58;;
80508;SDS011;69838;52.602;13.434;2023-06-14T01:34:47;5.63;;;3.42;;
80508;SDS011;69838;52.602;13.434;2023-06-14T01:35:33;5.00;;;3.40;;
80508;SDS011;69838;52.602;13.434;2023-06-14T01:36:18;4.95;;;3.30;;
80508;SDS011;69838;52.602;13.434;2023-06-14T01:37:04;5.05;;;2.95;;
80508;SDS011;69838;52.602;13.434;2023-06-14T01:37:51;5.93;;;3.30;;
80508;SDS011;69838;52.602;13.434;2023-06-14T01:38:38;5.50;;;3.88;;
80508;SDS011;69838;52.602;13.434;2023-06-14T01:39:24;4.95;;;3.30;;
80508;SDS011;69838;52.602;13.434;2023-06-14T01:40:10;5.32;;;3.42;;
80508;SDS011;69838;52.602;13.434;2023-06-14T01:40:56;5.82;;;4.00;;
80508;SDS011;69838;52.602;13.434;2023-06-14T01:41:44;7.05;;;4.32;;
80508;SDS011;69838;52.602;13.434;2023-06-14T01:42:30;5.53;;;3.95;;
80508;SDS011;69838;52.602;13.434;2023-06-14T01:43:18;6.20;;;4.47;;
80508;SDS011;69838;52.602;13.434;2023-06-14T01:44:04;6.03;;;3.92;;
80508;SDS011;69838;52.602;13.434;2023-06-14T01:44:50;5.22;;;3.63;;
80508;SDS011;69838;52.602;13.434;2023-06-14T01:45:37;6.93;;;4.07;;
80508;SDS011;69838;52.602;13.434;2023-06-14T01:46:23;5.10;;;3.15;;
80508;SDS011;69838;52.602;13.434;2023-06-14T01:47:09;5.30;;;4.03;;
80508;SDS011;69838;52.602;13.434;2023-06-14T01:47:55;6.40;;;3.42;;
80508;SDS011;69838;52.602;13.434;2023-06-14T01:48:40;5.85;;;3.60;;
80508;SDS011;69838;52.602;13.434;2023-06-14T01:49:26;5.03;;;3.72;;
80508;SDS011;69838;52.602;13.434;2023-06-14T01:50:12;8.02;;;5.13;;
80508;SDS011;69838;52.602;13.434;2023-06-14T01:50:58;5.90;;;3.78;;
80508;SDS011;69838;52.602;13.434;2023-06-14T01:51:43;5.70;;;3.85;;
80508;SDS011;69838;52.602;13.434;2023-06-14T01:52:28;6.45;;;4.30;;
80508;SDS011;69838;52.602;13.434;2023-06-14T01:53:13;5.75;;;3.35;;
80508;SDS011;69838;52.602;13.434;2023-06-14T01:53:59;6.65;;;3.65;;
80508;SDS011;69838;52.602;13.434;2023-06-14T01:54:45;5.90;;;3.35;;
80508;SDS011;69838;52.602;13.434;2023-06-14T01:55:32;6.32;;;4.32;;
80508;SDS011;69838;52.602;13.434;2023-06-14T01:56:22;5.53;;;3.83;;
80508;SDS011;69838;52.602;13.434;2023-06-14T01:57:08;6.35;;;4.03;;
80508;SDS011;69838;52.602;13.434;2023-06-14T01:57:53;6.45;;;5.30;;
80508;SDS011;69838;52.602;13.434;2023-06-14T01:58:38;5.97;;;3.95;;
80508;SDS011;69838;52.602;13.434;2023-06-14T01:59:24;6.00;;;4.13;;
80508;SDS011;69838;52.602;13.434;2023-06-14T02:00:10;6.40;;;3.58;;
80508;SDS011;69838;52.602;13.434;2023-06-14T02:00:57;7.88;;;4.35;;
80508;SDS011;69838;52.602;13.434;2023-06-14T02:01:43;5.80;;;3.90;;
80508;SDS011;69838;52.602;13.434;2023-06-14T02:02:28;6.97;;;3.88;;
80508;SDS011;69838;52.602;13.434;2023-06-14T02:03:13;5.53;;;3.63;;
80508;SDS011;69838;52.602;13.434;2023-06-14T02:04:00;6.15;;;3.90;;
80508;SDS011;69838;52.602;13.434;2023-06-14T02:04:45;5.40;;;3.50;;
80508;SDS011;69838;52.602;13.434;2023-06-14T02:05:32;6.32;;;4.07;;
80508;SDS011;69838;52.602;13.434;2023-06-14T02:06:19;5.18;;;3.60;;
80508;SDS011;69838;52.602;13.434;2023-06-14T02:07:04;6.03;;;4.32;;
80508;SDS011;69838;52.602;13.434;2023-06-14T02:07:50;5.78;;;3.70;;
80508;SDS011;69838;52.602;13.434;2023-06-14T02:08:35;6.55;;;3.67;;
80508;SDS011;69838;52.602;13.434;2023-06-14T02:09:20;6.32;;;3.70;;
80508;SDS011;69838;52.602;13.434;2023-06-14T02:10:07;5.22;;;3.92;;
80508;SDS011;69838;52.602;13.434;2023-06-14T02:10:52;5.30;;;4.03;;
80508;SDS011;69838;52.602;13.434;2023-06-14T02:11:37;5.85;;;3.60;;
80508;SDS011;69838;52.602;13.434;2023-06-14T02:12:23;7.43;;;4.40;;
80508;SDS011;69838;52.602;13.434;2023-06-14T02:13:08;6.07;;;4.30;;
80508;SDS011;69838;52.602;13.434;2023-06-14T02:13:53;6.18;;;4.60;;
80508;SDS011;69838;52.602;13.434;2023-06-14T02:14:40;5.68;;;3.88;;
80508;SDS011;69838;52.602;13.434;2023-06-14T02:15:25;5.78;;;3.97;;
80508;SDS011;69838;52.602;13.434;2023-06-14T02:16:18;5.80;;;4.35;;
80508;SDS011;69838;52.602;13.434;2023-06-14T02:17:03;6.30;;;4.32;;
80508;SDS011;69838;52.602;13.434;2023-06-14T02:17:49;6.82;;;4.55;;
80508;SDS011;69838;52.602;13.434;2023-06-14T02:18:34;10.57;;;4.80;;
80508;SDS011;69838;52.602;13.434;2023-06-14T02:19:20;5.50;;;4.28;;
80508;SDS011;69838;52.602;13.434;2023-06-14T02:20:05;6.05;;;4.90;;
80508;SDS011;69838;52.602;13.434;2023-06-14T02:20:53;7.13;;;5.32;;
80508;SDS011;69838;52.602;13.434;2023-06-14T02:21:38;6.20;;;4.30;;
80508;SDS011;69838;52.602;13.434;2023-06-14T02:22:23;6.88;;;4.82;;
80508;SDS011;69838;52.602;13.434;2023-06-14T02:23:09;6.82;;;5.18;;
80508;SDS011;69838;52.602;13.434;2023-06-14T02:23:54;7.57;;;4.60;;
80508;SDS011;69838;52.602;13.434;2023-06-14T02:24:40;7.55;;;4.47;;
80508;SDS011;69838;52.602;13.434;2023-06-14T02:25:25;6.35;;;4.90;;
80508;SDS011;69838;52.602;13.434;2023-06-14T02:26:12;7.05;;;5.75;;
80508;SDS011;69838;52.602;13.434;2023-06-14T02:26:57;7.05;;;6.35;;
80508;SDS011;69838;52.602;13.434;2023-06-14T02:27:43;6.97;;;4.25;;
80508;SDS011;69838;52.602;13.434;2023-06-14T02:28:28;8.65;;;6.03;;
80508;SDS011;69838;52.602;13.434;2023-06-14T02:29:13;6.97;;;4.57;;
80508;SDS011;69838;52.602;13.434;2023-06-14T02:29:59;7.82;;;4.80;;
80508;SDS011;69838;52.602;13.434;2023-06-14T02:30:46;6.40;;;4.13;;
80508;SDS011;69838;52.602;13.434;2023-06-14T02:31:31;5.55;;;4.43;;
80508;SDS011;69838;52.602;13.434;2023-06-14T02:32:17;6.40;;;4.72;;
80508;SDS011;69838;52.602;13.434;2023-06-14T02:33:03;7.15;;;4.88;;
80508;SDS011;69838;52.602;13.434;2023-06-14T02:33:49;7.35;;;4.78;;
80508;SDS011;69838;52.602;13.434;2023-06-14T02:34:34;6.38;;;4.90;;
80508;SDS011;69838;52.602;13.434;2023-06-14T02:35:19;6.78;;;4.85;;
80508;SDS011;69838;52.602;13.434;2023-06-14T02:36:07;6.18;;;4.70;;
80508;SDS011;69838;52.602;13.434;2023-06-14T02:36:52;5.93;;;4.07;;
80508;SDS011;69838;52.602;13.434;2023-06-14T02:37:37;5.78;;;4.13;;
80508;SDS011;69838;52.602;13.434;2023-06-14T02:38:22;6.47;;;4.05;;
80508;SDS011;69838;52.602;13.434;2023-06-14T02:39:08;5.80;;;3.78;;
80508;SDS011;69838;52.602;13.434;2023-06-14T02:39:55;6.03;;;4.30;;
80508;SDS011;69838;52.602;13.434;2023-06-14T02:40:40;5.63;;;3.80;;
80508;SDS011;69838;52.602;13.434;2023-06-14T02:41:27;6.75;;;4.40;;
80508;SDS011;69838;52.602;13.434;2023-06-14T02:42:12;5.63;;;3.80;;
80508;SDS011;69838;52.602;13.434;2023-06-14T02:42:58;5.68;;;4.40;;
80508;SDS011;69838;52.602;13.434;2023-06-14T02:43:43;7.63;;;4.35;;
80508;SDS011;69838;52.602;13.434;2023-06-14T02:44:28;6.07;;;4.15;;
80508;SDS011;69838;52.602;13.434;2023-06-14T02:45:14;6.45;;;4.40;;
80508;SDS011;69838;52.602;13.434;2023-06-14T02:46:00;5.90;;;4.55;;
80508;SDS011;69838;52.602;13.434;2023-06-14T02:46:45;8.07;;;4.50;;
80508;SDS011;69838;52.602;13.434;2023-06-14T02:47:31;8.80;;;5.88;;
80508;SDS011;69838;52.602;13.434;2023-06-14T02:48:16;6.60;;;4.53;;
80508;SDS011;69838;52.602;13.434;2023-06-14T02:49:01;6.72;;;4.28;;
80508;SDS011;69838;52.602;13.434;2023-06-14T02:49:47;5.70;;;4.10;;
80508;SDS011;69838;52.602;13.434;2023-06-14T02:50:32;6.53;;;4.10;;
80508;SDS011;69838;52.602;13.434;2023-06-14T02:51:17;6.50;;;4.25;;
80508;SDS011;69838;52.602;13.434;2023-06-14T02:52:02;5.72;;;3.65;;
80508;SDS011;69838;52.602;13.434;2023-06-14T02:52:48;5.97;;;4.07;;
80508;SDS011;69838;52.602;13.434;2023-06-14T02:53:33;5.82;;;3.95;;
80508;SDS011;69838;52.602;13.434;2023-06-14T02:54:19;7.10;;;4.13;;
80508;SDS011;69838;52.602;13.434;2023-06-14T02:55:04;5.88;;;3.90;;
80508;SDS011;69838;52.602;13.434;2023-06-14T02:55:51;5.75;;;3.63;;
80508;SDS011;69838;52.602;13.434;2023-06-14T02:56:37;6.32;;;3.97;;
80508;SDS011;69838;52.602;13.434;2023-06-14T02:57:22;6.28;;;4.22;;
80508;SDS011;69838;52.602;13.434;2023-06-14T02:58:08;6.68;;;3.75;;
80508;SDS011;69838;52.602;13.434;2023-06-14T02:58:53;8.07;;;3.95;;
80508;SDS011;69838;52.602;13.434;2023-06-14T02:59:39;5.97;;;4.15;;
80508;SDS011;69838;52.602;13.434;2023-06-14T03:00:24;5.97;;;4.50;;
80508;SDS011;69838;52.602;13.434;2023-06-14T03:01:09;7.10;;;4.90;;
80508;SDS011;69838;52.602;13.434;2023-06-14T03:01:57;7.55;;;4.90;;
80508;SDS011;69838;52.602;13.434;2023-06-14T03:02:43;5.90;;;3.60;;
80508;SDS011;69838;52.602;13.434;2023-06-14T03:03:29;5.97;;;4.07;;
80508;SDS011;69838;52.602;13.434;2023-06-14T03:04:14;5.82;;;4.40;;
80508;SDS011;69838;52.602;13.434;2023-06-14T03:05:01;6.18;;;4.70;;
80508;SDS011;69838;52.602;13.434;2023-06-14T03:05:48;6.70;;;4.28;;
80508;SDS011;69838;52.602;13.434;2023-06-14T03:06:34;6.35;;;4.65;;
80508;SDS011;69838;52.602;13.434;2023-06-14T03:07:21;6.25;;;4.22;;
80508;SDS011;69838;52.602;13.434;2023-06-14T03:08:08;5.40;;;4.07;;
80508;SDS011;69838;52.602;13.434;2023-06-14T03:08:53;7.88;;;3.95;;
80508;SDS011;69838;52.602;13.434;2023-06-14T03:09:39;6.28;;;3.92;;
80508;SDS011;69838;52.602;13.434;2023-06-14T03:10:25;5.43;;;3.53;;
80508;SDS011;69838;52.602;13.434;2023-06-14T03:11:13;5.97;;;3.80;;
80508;SDS011;69838;52.602;13.434;2023-06-14T03:11:59;6.30;;;4.25;;
80508;SDS011;69838;52.602;13.434;2023-06-14T03:12:45;6.95;;;4.57;;
80508;SDS011;69838;52.602;13.434;2023-06-14T03:13:30;6.05;;;4.00;;
80508;SDS011;69838;52.602;13.434;2023-06-14T03:14:17;7.32;;;4.97;;
80508;SDS011;69838;52.602;13.434;2023-06-14T03:15:03;5.20;;;3.65;;
80508;SDS011;69838;52.602;13.434;2023-06-14T03:15:49;6.70;;;3.83;;
80508;SDS011;69838;52.602;13.434;2023-06-14T03:16:37;6.13;;;4.03;;
80508;SDS011;69838;52.602;13.434;2023-06-14T03:17:22;6.85;;;4.65;;
80508;SDS011;69838;52.602;13.434;2023-06-14T03:18:09;5.55;;;4.40;;
80508;SDS011;69838;52.602;13.434;2023-06-14T03:18:54;5.85;;;3.70;;
80508;SDS011;69838;52.602;13.434;2023-06-14T03:19:39;6.28;;;3.83;;
80508;SDS011;69838;52.602;13.434;2023-06-14T03:20:26;8.02;;;4.38;;
80508;SDS011;69838;52.602;13.434;2023-06-14T03:21:13;7.00;;;4.38;;
80508;SDS011;69838;52.602;13.434;2023-06-14T03:22:01;6.13;;;3.80;;
80508;SDS011;69838;52.602;13.434;2023-06-14T03:22:47;6.65;;;4.35;;
80508;SDS011;69838;52.602;13.434;2023-06-14T03:23:32;7.60;;;3.95;;
80508;SDS011;69838;52.602;13.434;2023-06-14T03:24:18;5.63;;;3.90;;
80508;SDS011;69838;52.602;13.434;2023-06-14T03:25:03;6.70;;;4.25;;
80508;SDS011;69838;52.602;13.434;2023-06-14T03:25:49;6.32;;;4.55;;
80508;SDS011;69838;52.602;13.434;2023-06-14T03:26:34;7.30;;;4.00;;
80508;SDS011;69838;52.602;13.434;2023-06-14T03:27:21;6.47;;;4.43;;
80508;SDS011;69838;52.602;13.434;2023-06-14T03:28:07;6.72;;;4.43;;
80508;SDS011;69838;52.602;13.434;2023-06-14T03:28:53;7.07;;;4.80;;
80508;SDS011;69838;52.602;13.434;2023-06-14T03:29:38;7.57;;;4.95;;
80508;SDS011;69838;52.602;13.434;2023-06-14T03:30:23;6.72;;;4.45;;
80508;SDS011;69838;52.602;13.434;2023-06-14T03:31:08;6.78;;;5.00;;
80508;SDS011;69838;52.602;13.434;2023-06-14T03:32:00;6.75;;;4.55;;
80508;SDS011;69838;52.602;13.434;2023-06-14T03:32:47;6.78;;;4.45;;
80508;SDS011;69838;52.602;13.434;2023-06-14T03:33:33;6.43;;;4.15;;
80508;SDS011;69838;52.602;13.434;2023-06-14T03:34:18;6.10;;;3.85;;
80508;SDS011;69838;52.602;13.434;2023-06-14T03:35:04;7.05;;;4.75;;
80508;SDS011;69838;52.602;13.434;2023-06-14T03:35:50;6.97;;;4.70;;
80508;SDS011;69838;52.602;13.434;2023-06-14T03:36:35;8.05;;;4.25;;
80508;SDS011;69838;52.602;13.434;2023-06-14T03:37:20;9.27;;;4.60;;
80508;SDS011;69838;52.602;13.434;2023-06-14T03:38:05;6.50;;;4.68;;
80508;SDS011;69838;52.602;13.434;2023-06-14T03:38:51;7.28;;;4.50;;
80508;SDS011;69838;52.602;13.434;2023-06-14T03:39:36;6.45;;;4.53;;
80508;SDS011;69838;52.602;13.434;2023-06-14T03:40:21;7.10;;;4.85;;
80508;SDS011;69838;52.602;13.434;2023-06-14T03:41:08;6.78;;;4.57;;
80508;SDS011;69838;52.602;13.434;2023-06-14T03:41:53;7.68;;;5.72;;
80508;SDS011;69838;52.602;13.434;2023-06-14T03:42:39;7.25;;;4.65;;
80508;SDS011;69838;52.602;13.434;2023-06-14T03:43:25;7.00;;;4.95;;
80508;SDS011;69838;52.602;13.434;2023-06-14T03:44:10;6.40;;;4.53;;
80508;SDS011;69838;52.602;13.434;2023-06-14T03:44:55;7.30;;;5.20;;
80508;SDS011;69838;52.602;13.434;2023-06-14T03:45:40;7.20;;;4.97;;
80508;SDS011;69838;52.602;13.434;2023-06-14T03:46:26;6.85;;;4.72;;
80508;SDS011;69838;52.602;13.434;2023-06-14T03:47:11;7.05;;;4.82;;
80508;SDS011;69838;52.602;13.434;2023-06-14T03:47:56;6.90;;;5.30;;
80508;SDS011;69838;52.602;13.434;2023-06-14T03:48:41;7.03;;;5.15;;
80508;SDS011;69838;52.602;13.434;2023-06-14T03:49:26;7.28;;;5.03;;
80508;SDS011;69838;52.602;13.434;2023-06-14T03:50:12;6.68;;;4.80;;
80508;SDS011;69838;52.602;13.434;2023-06-14T03:50:57;7.05;;;5.25;;
80508;SDS011;69838;52.602;13.434;2023-06-14T03:51:43;8.15;;;5.93;;
80508;SDS011;69838;52.602;13.434;2023-06-14T03:52:28;8.27;;;4.93;;
80508;SDS011;69838;52.602;13.434;2023-06-14T03:53:14;8.80;;;5.25;;
80508;SDS011;69838;52.602;13.434;2023-06-14T03:53:59;8.52;;;5.10;;
80508;SDS011;69838;52.602;13.434;2023-06-14T03:54:44;7.22;;;5.82;;
80508;SDS011;69838;52.602;13.434;2023-06-14T03:55:31;8.02;;;5.00;;
80508;SDS011;69838;52.602;13.434;2023-06-14T03:56:16;8.30;;;5.75;;
80508;SDS011;69838;52.602;13.434;2023-06-14T03:57:01;7.35;;;5.35;;
80508;SDS011;69838;52.602;13.434;2023-06-14T03:57:47;9.20;;;5.30;;
80508;SDS011;69838;52.602;13.434;2023-06-14T03:58:32;9.52;;;5.50;;
80508;SDS011;69838;52.602;13.434;2023-06-14T03:59:18;8.95;;;5.30;;
80508;SDS011;69838;52.602;13.434;2023-06-14T04:00:03;8.50;;;5.50;;
80508;SDS011;69838;52.602;13.434;2023-06-14T04:00:50;7.53;;;5.18;;
80508;SDS011;69838;52.602;13.434;2023-06-14T04:01:36;7.32;;;5.43;;
80508;SDS011;69838;52.602;13.434;2023-06-14T04:02:21;9.50;;;5.00;;
80508;SDS011;69838;52.602;13.434;2023-06-14T04:03:07;8.10;;;5.00;;
80508;SDS011;69838;52.602;13.434;2023-06-14T04:03:52;7.80;;;5.28;;
80508;SDS011;69838;52.602;13.434;2023-06-14T04:04:38;8.05;;;5.22;;
80508;SDS011;69838;52.602;13.434;2023-06-14T04:05:23;9.05;;;5.90;;
80508;SDS011;69838;52.602;13.434;2023-06-14T04:06:11;7.05;;;5.45;;
80508;SDS011;69838;52.602;13.434;2023-06-14T04:06:56;6.82;;;5.00;;
80508;SDS011;69838;52.602;13.434;2023-06-14T04:07:43;7.15;;;5.65;;
80508;SDS011;69838;52.602;13.434;2023-06-14T04:08:29;8.02;;;4.93;;
80508;SDS011;69838;52.602;13.434;2023-06-14T04:09:15;7.55;;;5.32;;
80508;SDS011;69838;52.602;13.434;2023-06-14T04:10:00;7.75;;;5.30;;
80508;SDS011;69838;52.602;13.434;2023-06-14T04:10:45;7.72;;;5.65;;
80508;SDS011;69838;52.602;13.434;2023-06-14T04:11:31;6.65;;;4.60;;
80508;SDS011;69838;52.602;13.434;2023-06-14T04:12:16;9.15;;;5.88;;
80508;SDS011;69838;52.602;13.434;2023-06-14T04:13:02;8.38;;;5.30;;
80508;SDS011;69838;52.602;13.434;2023-06-14T04:13:47;7.45;;;5.43;;
80508;SDS011;69838;52.602;13.434;2023-06-14T04:14:32;7.95;;;5.18;;
80508;SDS011;69838;52.602;13.434;2023-06-14T04:15:17;7.75;;;4.72;;
80508;SDS011;69838;52.602;13.434;2023-06-14T04:16:03;9.20;;;5.63;;
80508;SDS011;69838;52.602;13.434;2023-06-14T04:16:49;8.60;;;5.43;;
80508;SDS011;69838;52.602;13.434;2023-06-14T04:17:34;8.02;;;5.55;;
80508;SDS011;69838;52.602;13.434;2023-06-14T04:18:20;7.80;;;5.45;;
80508;SDS011;69838;52.602;13.434;2023-06-14T04:19:05;7.45;;;5.10;;
80508;SDS011;69838;52.602;13.434;2023-06-14T04:19:51;6.80;;;4.72;;
80508;SDS011;69838;52.602;13.434;2023-06-14T04:20:36;7.70;;;5.90;;
80508;SDS011;69838;52.602;13.434;2023-06-14T04:21:21;6.80;;;4.90;;
80508;SDS011;69838;52.602;13.434;2023-06-14T04:22:08;10.00;;;5.43;;
80508;SDS011;69838;52.602;13.434;2023-06-14T04:22:56;6.78;;;5.03;;
80508;SDS011;69838;52.602;13.434;2023-06-14T04:23:42;6.93;;;5.00;;
80508;SDS011;69838;52.602;13.434;2023-06-14T04:24:28;8.32;;;5.55;;
80508;SDS011;69838;52.602;13.434;2023-06-14T04:25:17;7.45;;;5.20;;
80508;SDS011;69838;52.602;13.434;2023-06-14T04:26:02;8.63;;;5.85;;
80508;SDS011;69838;52.602;13.434;2023-06-14T04:26:48;6.75;;;5.03;;
80508;SDS011;69838;52.602;13.434;2023-06-14T04:27:34;8.52;;;5.57;;
80508;SDS011;69838;52.602;13.434;2023-06-14T04:28:21;7.38;;;5.38;;
80508;SDS011;69838;52.602;13.434;2023-06-14T04:29:12;7.85;;;6.80;;
80508;SDS011;69838;52.602;13.434;2023-06-14T04:30:01;8.20;;;5.85;;
80508;SDS011;69838;52.602;13.434;2023-06-14T04:30:47;8.20;;;6.45;;
80508;SDS011;69838;52.602;13.434;2023-06-14T04:31:32;9.20;;;5.00;;
80508;SDS011;69838;52.602;13.434;2023-06-14T04:32:18;8.23;;;5.65;;
80508;SDS011;69838;52.602;13.434;2023-06-14T04:33:04;6.80;;;5.00;;
80508;SDS011;69838;52.602;13.434;2023-06-14T04:33:50;6.63;;;5.13;;
80508;SDS011;69838;52.602;13.434;2023-06-14T04:34:38;7.07;;;5.60;;
80508;SDS011;69838;52.602;13.434;2023-06-14T04:35:24;7.85;;;6.35;;
80508;SDS011;69838;52.602;13.434;2023-06-14T04:36:10;9.75;;;5.95;;
80508;SDS011;69838;52.602;13.434;2023-06-14T04:36:58;8.32;;;5.65;;
80508;SDS011;69838;52.602;13.434;2023-06-14T04:37:44;7.28;;;5.20;;